createdAt,value
2018-08-10T00:00:00.403Z,18.2
2018-08-10T00:00:50.462Z,18.2
2018-08-10T00:01:40.554Z,18.2
2018-08-10T00:02:30.593Z,18.2
2018-08-10T00:03:20.654Z,18.2
2018-08-10T00:04:10.741Z,18.2
2018-08-10T00:05:00.810Z,18.2
2018-08-10T00:05:50.856Z,18.2
2018-08-10T00:06:40.933Z,18.2
2018-08-10T00:07:31.002Z,18.2
2018-08-10T00:08:21.043Z,18.2
2018-08-10T00:09:11.128Z,18.2
2018-08-10T00:10:01.181Z,18.2
2018-08-10T00:10:51.261Z,18.2
2018-08-10T00:11:40.745Z,18.2
2018-08-10T00:12:31.368Z,18.2
2018-08-10T00:13:21.153Z,18.2
2018-08-10T00:14:11.513Z,18.2
2018-08-10T00:15:01.594Z,18.2
2018-08-10T00:15:51.368Z,18.2
2018-08-10T00:16:41.687Z,18.2
2018-08-10T00:17:31.753Z,18.2
2018-08-10T00:18:21.551Z,18.2
2018-08-10T00:37:21.354Z,18.2
2018-08-10T00:38:11.414Z,18.2
2018-08-10T00:39:01.476Z,18.3
2018-08-10T00:39:51.536Z,18.2
2018-08-10T00:40:41.604Z,18.2
2018-08-10T00:41:31.661Z,18.2
2018-08-10T00:42:21.925Z,18.2
2018-08-10T00:43:11.791Z,18.2
2018-08-10T00:44:01.853Z,18.2
2018-08-10T00:44:51.921Z,18.2
2018-08-10T00:45:41.980Z,18.2
2018-08-10T00:46:32.046Z,18.2
2018-08-10T00:47:21.541Z,18.2
2018-08-10T00:48:12.176Z,18.2
2018-08-10T00:49:01.959Z,18.2
2018-08-10T00:49:52.315Z,18.2
2018-08-10T00:50:42.103Z,18.2
2018-08-10T00:51:32.429Z,18.2
2018-08-10T00:52:22.729Z,18.2
2018-08-10T00:53:12.571Z,18.2
2018-08-10T00:54:02.344Z,18.2
2018-08-10T00:54:52.695Z,18.2
2018-08-10T00:55:42.774Z,18.1
2018-08-10T00:56:32.837Z,18.2
2018-08-10T00:57:22.896Z,18.1
2018-08-10T00:58:12.960Z,18.1
2018-08-10T00:59:02.749Z,18.1
2018-08-10T00:59:53.089Z,18.1
2018-08-10T01:00:43.137Z,18.1
2018-08-10T01:01:33.213Z,18.1
2018-08-10T01:02:23.272Z,18.1
2018-08-10T01:03:13.329Z,18.1
2018-08-10T01:04:03.426Z,18.1
2018-08-10T01:04:53.533Z,18.1
2018-08-10T01:05:43.242Z,18.1
2018-08-10T01:06:33.583Z,18.1
2018-08-10T01:07:23.590Z,18.1
2018-08-10T01:08:13.720Z,18.1
2018-08-10T01:09:03.787Z,18.1
2018-08-10T01:09:53.888Z,18.1
2018-08-10T01:10:43.915Z,18.1
2018-08-10T01:11:33.967Z,18.1
2018-08-10T01:12:24.277Z,18.1
2018-08-10T01:13:13.866Z,18.1
2018-08-10T01:14:04.391Z,18.1
2018-08-10T01:14:54.229Z,18.1
2018-08-10T01:15:44.032Z,18.1
2018-08-10T01:16:34.504Z,18.1
2018-08-10T01:17:24.620Z,18.1
2018-08-10T01:18:14.482Z,18.1
2018-08-10T01:19:04.870Z,18.1
2018-08-10T01:19:54.620Z,18.1
2018-08-10T01:20:44.702Z,18
2018-08-10T01:21:34.745Z,18.1
2018-08-10T01:22:24.549Z,18
2018-08-10T01:23:14.890Z,18
2018-08-10T01:24:05.012Z,18
2018-08-10T01:24:55.024Z,18
2018-08-10T01:25:45.069Z,18
2018-08-10T01:26:35.151Z,18
2018-08-10T01:27:25.244Z,18
2018-08-10T01:28:15.106Z,18
2018-08-10T01:29:05.073Z,18
2018-08-10T01:29:55.353Z,17.9
2018-08-10T01:30:45.456Z,18
2018-08-10T01:31:35.523Z,17.9
2018-08-10T01:32:25.591Z,17.9
2018-08-10T01:33:15.676Z,17.9
2018-08-10T01:34:05.721Z,17.9
2018-08-10T01:34:55.922Z,17.9
2018-08-10T01:35:45.590Z,17.9
2018-08-10T01:36:35.923Z,17.9
2018-08-10T01:37:25.978Z,17.9
2018-08-10T01:38:16.043Z,17.9
2018-08-10T01:39:06.103Z,17.9
2018-08-10T01:39:56.157Z,17.9
2018-08-10T01:40:46.233Z,17.9
2018-08-10T01:41:36.028Z,17.9
2018-08-10T01:42:26.374Z,17.9
2018-08-10T01:43:16.173Z,17.9
2018-08-10T01:44:06.201Z,17.9
2018-08-10T01:44:56.551Z,17.9
2018-08-10T01:45:46.606Z,17.9
2018-08-10T01:46:36.395Z,17.9
2018-08-10T01:47:26.733Z,17.9
2018-08-10T01:48:16.802Z,17.8
2018-08-10T01:49:06.855Z,17.8
2018-08-10T01:49:56.929Z,17.9
2018-08-10T01:50:47.011Z,17.8
2018-08-10T01:51:36.777Z,17.8
2018-08-10T01:52:27.119Z,17.8
2018-08-10T01:53:17.208Z,17.8
2018-08-10T01:54:07.247Z,17.8
2018-08-10T01:54:57.040Z,17.8
2018-08-10T01:55:47.476Z,17.8
2018-08-10T01:56:37.454Z,17.8
2018-08-10T01:57:27.509Z,17.8
2018-08-10T01:58:17.585Z,17.8
2018-08-10T01:59:07.394Z,17.8
2018-08-10T01:59:57.439Z,17.8
2018-08-10T02:00:47.212Z,17.8
2018-08-10T02:01:37.551Z,17.8
2018-08-10T02:02:27.624Z,17.8
2018-08-10T02:03:17.696Z,17.8
2018-08-10T02:04:08.033Z,17.8
2018-08-10T02:04:58.145Z,17.8
2018-08-10T02:05:48.165Z,17.8
2018-08-10T02:06:38.221Z,17.8
2018-08-10T02:07:28.302Z,17.8
2018-08-10T02:08:18.355Z,17.8
2018-08-10T02:09:08.419Z,17.8
2018-08-10T02:09:58.496Z,17.8
2018-08-10T02:10:48.589Z,17.7
2018-08-10T02:11:38.632Z,17.7
2018-08-10T02:12:28.694Z,17.7
2018-08-10T02:13:18.454Z,17.7
2018-08-10T02:14:09.022Z,17.7
2018-08-10T02:14:59.078Z,17.7
2018-08-10T02:15:49.066Z,17.7
2018-08-10T02:16:39.004Z,17.7
2018-08-10T02:17:29.051Z,17.7
2018-08-10T02:18:19.116Z,17.7
2018-08-10T02:19:09.343Z,17.6
2018-08-10T02:19:59.240Z,17.7
2018-08-10T02:20:49.375Z,17.6
2018-08-10T02:21:39.596Z,17.6
2018-08-10T02:22:29.473Z,17.6
2018-08-10T02:23:19.498Z,17.6
2018-08-10T02:24:09.557Z,17.6
2018-08-10T02:24:59.646Z,17.6
2018-08-10T02:25:49.706Z,17.6
2018-08-10T02:26:39.763Z,17.6
2018-08-10T02:27:29.881Z,17.6
2018-08-10T02:28:19.933Z,17.6
2018-08-10T02:29:09.953Z,17.6
2018-08-10T02:30:00.021Z,17.6
2018-08-10T02:30:50.322Z,17.6
2018-08-10T02:31:40.177Z,17.6
2018-08-10T02:32:29.956Z,17.6
2018-08-10T02:33:20.298Z,17.6
2018-08-10T02:34:10.349Z,17.6
2018-08-10T02:35:00.425Z,17.6
2018-08-10T02:35:50.518Z,17.6
2018-08-10T02:36:40.488Z,17.5
2018-08-10T02:37:30.674Z,17.5
2018-08-10T02:38:20.697Z,17.5
2018-08-10T02:39:10.729Z,17.5
2018-08-10T02:40:00.808Z,17.5
2018-08-10T02:40:50.595Z,17.5
2018-08-10T02:41:40.467Z,17.5
2018-08-10T02:42:31.012Z,17.5
2018-08-10T02:43:21.075Z,17.4
2018-08-10T02:44:11.137Z,17.4
2018-08-10T02:45:01.144Z,17.4
2018-08-10T02:45:51.252Z,17.4
2018-08-10T02:46:41.321Z,17.4
2018-08-10T02:47:31.377Z,17.4
2018-08-10T02:48:21.458Z,17.4
2018-08-10T02:49:11.518Z,17.4
2018-08-10T02:50:01.311Z,17.4
2018-08-10T02:50:51.635Z,17.4
2018-08-10T02:51:41.547Z,17.4
2018-08-10T02:52:31.759Z,17.4
2018-08-10T02:53:21.869Z,17.4
2018-08-10T02:54:11.914Z,17.3
2018-08-10T02:55:01.999Z,17.3
2018-08-10T02:55:52.048Z,17.3
2018-08-10T02:56:42.085Z,17.3
2018-08-10T02:57:32.172Z,17.3
2018-08-10T02:58:22.159Z,17.3
2018-08-10T02:59:12.238Z,17.3
2018-08-10T03:00:02.374Z,17.3
2018-08-10T03:00:51.863Z,17.3
2018-08-10T03:01:42.476Z,17.3
2018-08-10T03:02:32.545Z,17.3
2018-08-10T03:03:22.609Z,17.3
2018-08-10T03:04:12.678Z,17.3
2018-08-10T03:05:02.745Z,17.3
2018-08-10T03:05:52.800Z,17.3
2018-08-10T03:06:42.694Z,17.3
2018-08-10T03:07:32.928Z,17.3
2018-08-10T03:08:22.723Z,17.3
2018-08-10T03:09:13.058Z,17.3
2018-08-10T03:10:02.855Z,17.2
2018-08-10T03:10:52.643Z,17.2
2018-08-10T03:11:43.286Z,17.2
2018-08-10T03:12:33.315Z,17.2
2018-08-10T03:13:23.426Z,17.2
2018-08-10T03:14:13.162Z,17.1
2018-08-10T03:15:03.521Z,17.1
2018-08-10T03:16:08.242Z,17.1
2018-08-10T03:16:43.393Z,17.1
2018-08-10T03:17:33.717Z,17.1
2018-08-10T03:18:23.489Z,17.1
2018-08-10T03:19:13.876Z,17.1
2018-08-10T03:20:03.937Z,17.1
2018-08-10T03:20:53.699Z,17.1
2018-08-10T03:21:44.134Z,17.1
2018-08-10T03:22:34.229Z,17.1
2018-08-10T03:23:24.197Z,17.1
2018-08-10T03:24:14.224Z,17.1
2018-08-10T03:25:04.299Z,17.1
2018-08-10T03:25:54.338Z,17.1
2018-08-10T03:32:34.900Z,16.9
2018-08-10T03:33:24.923Z,16.9
2018-08-10T03:34:14.988Z,16.9
2018-08-10T03:35:04.806Z,16.9
2018-08-10T03:35:55.129Z,16.9
2018-08-10T03:36:45.185Z,16.9
2018-08-10T03:37:35.255Z,16.9
2018-08-10T03:38:25.316Z,16.9
2018-08-10T03:39:15.093Z,16.9
2018-08-10T03:40:05.446Z,16.9
2018-08-10T03:40:55.236Z,16.9
2018-08-10T03:41:45.588Z,16.9
2018-08-10T03:42:35.377Z,16.9
2018-08-10T03:43:25.705Z,16.8
2018-08-10T03:44:15.774Z,16.8
2018-08-10T03:45:05.843Z,16.8
2018-08-10T03:45:55.631Z,16.8
2018-08-10T03:46:46.392Z,16.8
2018-08-10T03:47:36.045Z,16.8
2018-08-10T03:48:25.821Z,16.8
2018-08-10T03:49:15.611Z,16.8
2018-08-10T03:50:06.267Z,16.8
2018-08-10T03:50:56.292Z,16.8
2018-08-10T03:51:46.373Z,16.8
2018-08-10T03:52:35.887Z,16.8
2018-08-10T03:53:26.514Z,16.8
2018-08-10T03:54:16.576Z,16.8
2018-08-10T03:55:06.632Z,16.8
2018-08-10T03:55:56.684Z,16.7
2018-08-10T03:56:46.689Z,16.7
2018-08-10T03:57:36.262Z,16.7
2018-08-10T03:58:26.604Z,16.7
2018-08-10T03:59:16.418Z,16.7
2018-08-10T04:00:06.900Z,16.7
2018-08-10T04:00:56.808Z,16.6
2018-08-10T04:01:47.153Z,16.6
2018-08-10T04:02:37.212Z,16.7
2018-08-10T04:03:26.722Z,16.6
2018-08-10T04:04:17.325Z,16.6
2018-08-10T04:05:07.420Z,16.6
2018-08-10T04:05:57.481Z,16.6
2018-08-10T04:06:47.523Z,16.6
2018-08-10T04:07:37.598Z,16.6
2018-08-10T04:08:27.666Z,16.6
2018-08-10T04:09:17.744Z,16.6
2018-08-10T04:10:07.241Z,16.6
2018-08-10T04:10:57.574Z,16.6
2018-08-10T04:11:47.942Z,16.6
2018-08-10T04:12:38.017Z,16.6
2018-08-10T04:13:42.723Z,16.6
2018-08-10T04:14:18.129Z,16.6
2018-08-10T04:15:08.197Z,16.6
2018-08-10T04:15:58.238Z,16.5
2018-08-10T04:16:48.525Z,16.5
2018-08-10T04:17:38.364Z,16.5
2018-08-10T04:18:28.429Z,16.5
2018-08-10T04:19:18.239Z,16.5
2018-08-10T04:20:08.295Z,16.5
2018-08-10T04:20:58.652Z,16.5
2018-08-10T04:21:48.697Z,16.5
2018-08-10T04:22:38.792Z,16.5
2018-08-10T04:23:28.833Z,16.5
2018-08-10T04:24:18.903Z,16.5
2018-08-10T04:25:08.707Z,16.5
2018-08-10T04:25:59.022Z,16.5
2018-08-10T04:26:49.091Z,16.5
2018-08-10T04:27:39.159Z,16.5
2018-08-10T04:28:29.233Z,16.6
2018-08-10T04:29:19.001Z,16.6
2018-08-10T04:30:09.089Z,16.6
2018-08-10T05:06:54.515Z,19.1
2018-08-10T05:07:44.539Z,19.3
2018-08-10T05:08:34.344Z,19.5
2018-08-10T05:09:24.673Z,19.6
2018-08-10T05:10:14.738Z,19.8
2018-08-10T05:11:04.781Z,19.9
2018-08-10T05:11:54.857Z,20.1
2018-08-10T05:12:44.713Z,20.3
2018-08-10T05:13:34.685Z,20.4
2018-08-10T05:14:24.753Z,20.6
2018-08-10T05:15:15.130Z,20.8
2018-08-10T05:16:05.177Z,20.9
2018-08-10T05:16:55.241Z,21.2
2018-08-10T05:17:45.009Z,21.4
2018-08-10T05:18:35.368Z,21.6
2018-08-10T05:19:25.430Z,21.8
2018-08-10T05:20:15.496Z,21.9
2018-08-10T05:21:05.549Z,22.2
2018-08-10T05:21:55.614Z,22.4
2018-08-10T05:22:45.684Z,22.6
2018-08-10T05:23:35.468Z,22.8
2018-08-10T05:24:25.542Z,23.1
2018-08-10T05:25:15.583Z,23.3
2018-08-10T05:26:05.677Z,23.5
2018-08-10T05:26:55.721Z,23.8
2018-08-10T05:27:46.071Z,24
2018-08-10T05:28:36.130Z,24.3
2018-08-10T05:29:26.201Z,24.5
2018-08-10T05:30:16.288Z,24.8
2018-08-10T05:31:05.764Z,25.1
2018-08-10T05:31:56.414Z,25.4
2018-08-10T05:32:46.471Z,25.6
2018-08-10T05:33:36.525Z,25.9
2018-08-10T05:34:26.310Z,26.2
2018-08-10T05:35:16.359Z,26.5
2018-08-10T05:36:06.709Z,26.8
2018-08-10T05:36:56.496Z,27.1
2018-08-10T05:37:46.619Z,27.4
2018-08-10T05:38:36.905Z,27.8
2018-08-10T05:39:27.013Z,28.1
2018-08-10T05:40:16.749Z,28.4
2018-08-10T05:41:07.106Z,28.7
2018-08-10T05:41:57.189Z,29
2018-08-10T05:42:46.969Z,29.3
2018-08-10T05:43:37.308Z,29.6
2018-08-10T05:44:27.378Z,30
2018-08-10T05:45:17.153Z,30.3
2018-08-10T05:46:07.498Z,30.7
2018-08-10T05:46:57.771Z,31
2018-08-10T05:47:46.769Z,23.5
2018-08-10T05:48:37.712Z,25.3
2018-08-10T05:49:27.747Z,36.9
2018-08-10T05:50:17.805Z,40
2018-08-10T05:51:07.616Z,40.2
2018-08-10T05:51:57.752Z,39.7
2018-08-10T05:52:48.029Z,39.3
2018-08-10T05:53:38.088Z,38.9
2018-08-10T05:54:28.137Z,38.6
2018-08-10T05:55:18.250Z,38.4
2018-08-10T05:56:08.277Z,38.2
2018-08-10T05:56:58.349Z,38.1
2018-08-10T05:57:48.424Z,37.9
2018-08-10T05:58:38.184Z,37.9
2018-08-10T05:59:28.553Z,37.8
2018-08-10T06:00:18.609Z,37.8
2018-08-10T06:01:08.656Z,37.8
2018-08-10T06:01:58.717Z,37.9
2018-08-10T06:02:48.781Z,37.4
2018-08-10T06:03:39.103Z,34.4
2018-08-10T06:04:28.930Z,34.9
2018-08-10T06:05:18.986Z,35.3
2018-08-10T06:06:09.060Z,36.4
2018-08-10T06:06:59.108Z,36.6
2018-08-10T06:07:49.177Z,36.7
2018-08-10T06:08:38.981Z,36.6
2018-08-10T06:09:29.309Z,36.5
2018-08-10T06:10:19.377Z,36.3
2018-08-10T06:11:09.442Z,36.4
2018-08-10T06:11:59.505Z,36.6
2018-08-10T06:12:49.585Z,36.8
2018-08-10T06:13:39.620Z,36.9
2018-08-10T06:14:29.414Z,37.1
2018-08-10T06:15:19.555Z,37.2
2018-08-10T06:16:09.834Z,37.3
2018-08-10T06:16:59.902Z,37.4
2018-08-10T06:17:49.957Z,37.5
2018-08-10T06:18:39.737Z,37.6
2018-08-10T06:19:30.365Z,37.8
2018-08-10T06:20:20.149Z,37.9
2018-08-10T06:21:09.929Z,38
2018-08-10T06:22:00.322Z,38.1
2018-08-10T06:22:50.721Z,38.3
2018-08-10T06:23:40.413Z,38.4
2018-08-10T06:24:30.508Z,38.5
2018-08-10T06:25:20.299Z,38.6
2018-08-10T06:26:10.597Z,38.8
2018-08-10T06:27:00.111Z,38.9
2018-08-10T06:27:51.352Z,39
2018-08-10T06:28:40.513Z,39.2
2018-08-10T06:29:30.859Z,39.3
2018-08-10T06:30:20.351Z,39.4
2018-08-10T06:31:10.714Z,39.6
2018-08-10T06:32:00.491Z,39.7
2018-08-10T06:32:51.121Z,39.8
2018-08-10T06:33:41.325Z,39.9
2018-08-10T06:34:31.266Z,40.1
2018-08-10T06:35:21.322Z,40.2
2018-08-10T06:36:11.378Z,40.3
2018-08-10T06:37:01.446Z,40.4
2018-08-10T06:37:50.941Z,40.6
2018-08-10T06:38:41.578Z,40.7
2018-08-10T06:39:31.063Z,40.8
2018-08-10T06:40:21.716Z,40.9
2018-08-10T06:41:11.198Z,41.1
2018-08-10T06:42:01.555Z,41.2
2018-08-10T06:42:51.619Z,41.3
2018-08-10T06:43:41.955Z,41.4
2018-08-10T06:44:32.047Z,41.6
2018-08-10T06:45:22.455Z,41.7
2018-08-10T06:46:11.583Z,41.8
2018-08-10T06:47:02.235Z,41.9
2018-08-10T06:47:52.290Z,42.1
2018-08-10T06:48:42.375Z,42.1
2018-08-10T06:49:31.840Z,42.3
2018-08-10T06:50:22.495Z,42.4
2018-08-10T06:51:12.486Z,42.5
2018-08-10T06:52:02.624Z,42.7
2018-08-10T06:52:52.101Z,42.8
2018-08-10T06:53:42.737Z,42.9
2018-08-10T06:54:32.799Z,43
2018-08-10T06:55:22.871Z,43.1
2018-08-10T06:56:13.371Z,43.3
2018-08-10T06:57:03.058Z,43.4
2018-08-10T06:57:52.773Z,43.4
2018-08-10T06:58:42.843Z,43.6
2018-08-10T06:59:33.187Z,43.7
2018-08-10T07:00:23.368Z,43.8
2018-08-10T07:01:13.333Z,43.9
2018-08-10T07:02:03.382Z,44.1
2018-08-10T07:02:53.448Z,44.2
2018-08-10T07:03:43.533Z,44.3
2018-08-10T07:04:33.300Z,44.4
2018-08-10T07:05:23.714Z,44.6
2018-08-10T07:06:13.426Z,44.7
2018-08-10T07:07:03.506Z,44.8
2018-08-10T07:07:54.125Z,44.9
2018-08-10T07:08:43.627Z,45.1
2018-08-10T07:09:33.990Z,45.2
2018-08-10T07:10:24.054Z,45.3
2018-08-10T07:11:14.118Z,45.4
2018-08-10T07:12:03.894Z,45.6
2018-08-10T07:12:54.315Z,45.7
2018-08-10T07:13:44.618Z,45.8
2018-08-10T07:14:34.391Z,45.9
2018-08-10T07:15:24.433Z,46.1
2018-08-10T07:16:14.503Z,46.2
2018-08-10T07:17:04.318Z,46.3
2018-08-10T07:17:54.624Z,46.4
2018-08-10T07:18:44.726Z,46.6
2018-08-10T07:19:34.475Z,46.7
2018-08-10T07:20:24.837Z,46.8
2018-08-10T07:21:14.602Z,46.9
2018-08-10T07:22:04.960Z,47.1
2018-08-10T07:22:55.038Z,47.2
2018-08-10T07:23:45.101Z,47.3
2018-08-10T07:24:34.862Z,47.5
2018-08-10T07:25:25.209Z,47.6
2018-08-10T07:26:15.270Z,47.8
2018-08-10T07:27:05.504Z,47.9
2018-08-10T07:27:55.144Z,48
2018-08-10T07:28:45.212Z,48.1
2018-08-10T07:29:35.522Z,48.3
2018-08-10T07:30:25.597Z,48.4
2018-08-10T07:31:15.657Z,48.6
2018-08-10T07:32:05.727Z,48.7
2018-08-10T07:32:55.799Z,48.8
2018-08-10T07:33:45.854Z,48.9
2018-08-10T07:34:35.979Z,49.1
2018-08-10T07:35:25.976Z,49.2
2018-08-10T07:36:16.051Z,49.3
2018-08-10T07:37:05.824Z,49.4
2018-08-10T07:37:55.893Z,49.6
2018-08-10T07:38:45.956Z,49.7
2018-08-10T07:39:36.318Z,49.8
2018-08-10T07:40:26.097Z,50
2018-08-10T07:41:16.467Z,50.1
2018-08-10T07:42:06.504Z,50.3
2018-08-10T07:42:56.584Z,50.4
2018-08-10T07:43:46.640Z,50.5
2018-08-10T07:44:36.511Z,50.6
2018-08-10T07:45:26.787Z,50.8
2018-08-10T07:46:16.826Z,50.9
2018-08-10T07:47:06.905Z,51.1
2018-08-10T07:47:56.948Z,51.2
2018-08-10T07:48:47.033Z,51.3
2018-08-10T07:49:37.115Z,51.4
2018-08-10T07:50:26.880Z,51.6
2018-08-10T07:51:16.934Z,51.7
2018-08-10T07:52:07.347Z,51.8
2018-08-10T07:53:47.416Z,52.1
2018-08-10T07:54:37.493Z,52.3
2018-08-10T07:56:17.337Z,52.5
2018-08-10T07:57:07.103Z,52.6
2018-08-10T07:57:57.448Z,52.8
2018-08-10T07:58:47.791Z,52.9
2018-08-10T07:59:37.865Z,53
2018-08-10T08:00:27.922Z,53.1
2018-08-10T08:01:18.037Z,53.3
2018-08-10T08:02:07.780Z,53.4
2018-08-10T08:02:57.871Z,53.5
2018-08-10T08:03:47.905Z,53.6
2018-08-10T08:04:37.701Z,53.8
2018-08-10T08:05:28.030Z,53.9
2018-08-10T08:06:19.088Z,54.1
2018-08-10T08:07:13.143Z,54.2
2018-08-10T08:07:58.600Z,54.3
2018-08-10T08:08:48.284Z,54.4
2018-08-10T08:09:38.661Z,54.6
2018-08-10T08:10:28.894Z,54.7
2018-08-10T08:11:18.787Z,54.8
2018-08-10T08:12:08.869Z,54.9
2018-08-10T08:12:58.622Z,55.1
2018-08-10T08:13:49.224Z,55.2
2018-08-10T08:14:38.469Z,55.3
2018-08-10T08:15:29.102Z,55.4
2018-08-10T08:16:19.165Z,55.6
2018-08-10T08:17:09.239Z,55.7
2018-08-10T08:17:58.807Z,55.8
2018-08-10T08:18:48.797Z,55.9
2018-08-10T08:19:40.094Z,56.1
2018-08-10T08:20:29.516Z,56.2
2018-08-10T08:21:19.284Z,56.3
2018-08-10T08:22:09.646Z,56.4
2018-08-10T08:22:59.690Z,56.6
2018-08-10T08:23:49.772Z,56.7
2018-08-10T08:24:39.814Z,56.8
2018-08-10T08:25:29.889Z,56.9
2018-08-10T08:26:19.958Z,57.1
2018-08-10T08:27:10.309Z,57.2
2018-08-10T08:28:00.084Z,57.3
2018-08-10T08:28:50.155Z,57.4
2018-08-10T08:29:39.941Z,57.6
2018-08-10T08:30:30.299Z,57.6
2018-08-10T08:31:20.068Z,57.8
2018-08-10T08:32:10.112Z,57.9
2018-08-10T08:33:00.477Z,58
2018-08-10T08:33:50.553Z,58.1
2018-08-10T08:34:40.971Z,58.2
2018-08-10T08:35:30.381Z,58.3
2018-08-10T08:36:20.447Z,58.4
2018-08-10T08:38:00.899Z,58.6
2018-08-10T08:38:50.931Z,58.8
2018-08-10T08:39:40.720Z,58.9
2018-08-10T08:40:31.062Z,59
2018-08-10T08:41:20.545Z,59.1
2018-08-10T08:42:10.893Z,59.3
2018-08-10T08:43:00.965Z,59.4
2018-08-10T08:43:51.038Z,59.4
2018-08-10T08:44:41.411Z,59.6
2018-08-10T08:45:32.324Z,59.5
2018-08-10T08:46:22.597Z,59.5
2018-08-10T08:47:11.581Z,59.6
2018-08-10T08:48:01.366Z,59.7
2018-08-10T08:48:51.421Z,59.5
2018-08-10T08:49:41.497Z,59.2
2018-08-10T08:50:31.840Z,58.9
2018-08-10T08:51:21.916Z,58.6
2018-08-10T08:52:11.965Z,58.5
2018-08-10T08:53:02.032Z,58.8
2018-08-10T08:53:52.174Z,59.2
2018-08-10T08:54:42.271Z,59.3
2018-08-10T08:55:32.246Z,59.1
2018-08-10T08:56:22.001Z,58.8
2018-08-10T08:57:12.506Z,58.4
2018-08-10T08:58:02.424Z,58.4
2018-08-10T08:58:52.493Z,58.3
2018-08-10T08:59:42.278Z,58.3
2018-08-10T09:00:32.620Z,58.3
2018-08-10T09:01:22.115Z,58.1
2018-08-10T09:03:02.814Z,57.9
2018-08-10T09:03:52.879Z,58
2018-08-10T09:04:42.660Z,58.3
2018-08-10T09:21:09.952Z,59.1
2018-08-10T09:22:00.012Z,58.8
2018-08-10T09:23:40.134Z,58.4
2018-08-10T09:24:29.932Z,58.4
2018-08-10T09:25:20.274Z,58.9
2018-08-10T09:26:10.348Z,59.4
2018-08-10T09:27:00.489Z,59.8
2018-08-10T09:27:50.463Z,59.5
2018-08-10T09:28:40.251Z,59.1
2018-08-10T09:29:30.585Z,58.9
2018-08-10T09:30:20.655Z,58.9
2018-08-10T09:31:10.444Z,58.8
2018-08-10T09:32:00.526Z,58.8
2018-08-10T09:33:40.927Z,58.4
2018-08-10T09:34:31.030Z,58.4
2018-08-10T09:35:20.779Z,58.5
2018-08-10T09:36:11.147Z,58.7
2018-08-10T09:37:01.176Z,58.9
2018-08-10T09:37:51.239Z,58.8
2018-08-10T09:38:41.421Z,58.5
2018-08-10T09:39:31.367Z,58.3
2018-08-10T09:40:21.249Z,58.1
2018-08-10T09:41:10.939Z,57.9
2018-08-10T09:42:01.640Z,58.1
2018-08-10T09:43:41.436Z,58.9
2018-08-10T09:44:31.487Z,59.3
2018-08-10T09:45:21.738Z,59.6
2018-08-10T09:46:11.898Z,59.6
2018-08-10T09:47:01.692Z,59.5
2018-08-10T09:47:51.749Z,59.6
2018-08-10T09:48:42.108Z,59.9
2018-08-10T09:49:32.187Z,60.2
2018-08-10T09:50:22.244Z,60.3
2018-08-10T09:51:12.295Z,60.5
2018-08-10T09:52:02.105Z,60.6
2018-08-10T09:52:52.415Z,60.8
2018-08-10T09:53:42.475Z,60.8
2018-08-10T09:54:32.598Z,61
2018-08-10T09:55:22.627Z,61.1
2018-08-10T09:56:12.396Z,61.2
2018-08-10T09:57:02.743Z,61.3
2018-08-10T09:57:53.025Z,61.4
2018-08-10T09:58:42.587Z,61.4
2018-08-10T09:59:32.657Z,61.6
2018-08-10T10:00:22.728Z,61.7
2018-08-10T10:01:13.083Z,61.8
2018-08-10T10:02:03.162Z,61.8
2018-08-10T10:02:52.931Z,61.9
2018-08-10T10:03:43.259Z,62
2018-08-10T10:04:32.790Z,62.1
2018-08-10T10:05:23.412Z,62.1
2018-08-10T10:06:13.456Z,62.3
2018-08-10T10:07:03.553Z,62.3
2018-08-10T10:07:53.591Z,62.4
2018-08-10T10:08:43.397Z,62.4
2018-08-10T10:09:33.481Z,62.5
2018-08-10T10:10:23.521Z,62.6
2018-08-10T10:11:13.855Z,62.7
2018-08-10T10:12:03.934Z,62.8
2018-08-10T10:12:54.001Z,62.8
2018-08-10T10:13:44.053Z,62.9
2018-08-10T10:14:34.154Z,62.9
2018-08-10T10:15:24.229Z,63
2018-08-10T10:16:14.287Z,63.1
2018-08-10T10:17:04.360Z,63.1
2018-08-10T10:17:54.663Z,63.2
2018-08-10T10:18:44.493Z,63.3
2018-08-10T10:19:33.970Z,63.3
2018-08-10T10:20:24.316Z,63.4
2018-08-10T10:21:14.691Z,63.5
2018-08-10T10:22:04.745Z,63.5
2018-08-10T10:22:54.813Z,63.6
2018-08-10T10:23:44.860Z,63.7
2018-08-10T10:24:34.650Z,63.8
2018-08-10T10:25:24.696Z,63.8
2018-08-10T10:26:14.782Z,63.8
2018-08-10T10:27:05.147Z,63.9
2018-08-10T10:27:55.208Z,63.9
2018-08-10T10:28:45.246Z,64
2018-08-10T10:29:35.339Z,64.1
2018-08-10T10:30:25.408Z,64.1
2018-08-10T10:31:15.463Z,64.2
2018-08-10T10:32:05.215Z,64.3
2018-08-10T10:32:55.308Z,64.3
2018-08-10T10:33:45.639Z,64.4
2018-08-10T10:34:35.706Z,64.4
2018-08-10T10:35:25.771Z,64.5
2018-08-10T10:36:15.847Z,64.6
2018-08-10T10:37:05.902Z,64.6
2018-08-10T10:37:55.968Z,64.7
2018-08-10T10:38:45.732Z,64.8
2018-08-10T10:39:36.097Z,64.8
2018-08-10T10:40:25.877Z,64.8
2018-08-10T10:41:16.222Z,64.9
2018-08-10T10:42:06.280Z,64.9
2018-08-10T10:42:56.357Z,65
2018-08-10T10:43:46.433Z,65.1
2018-08-10T10:44:36.199Z,65.1
2018-08-10T10:45:26.547Z,65.1
2018-08-10T10:46:16.603Z,65.2
2018-08-10T10:47:06.680Z,65.3
2018-08-10T10:47:56.747Z,65.4
2018-08-10T10:48:46.524Z,65.4
2018-08-10T10:49:36.866Z,65.5
2018-08-10T10:50:26.936Z,65.5
2018-08-10T10:51:16.711Z,65.5
2018-08-10T10:52:07.060Z,65.6
2018-08-10T10:52:56.583Z,65.7
2018-08-10T10:53:47.188Z,65.8
2018-08-10T10:54:36.981Z,65.8
2018-08-10T10:55:27.196Z,65.9
2018-08-10T10:56:17.433Z,65.9
2018-08-10T10:57:07.183Z,65.9
2018-08-10T10:57:57.513Z,66
2018-08-10T10:58:47.580Z,66.1
2018-08-10T10:59:37.381Z,66.1
2018-08-10T11:00:27.420Z,66.1
2018-08-10T11:01:17.773Z,66.2
2018-08-10T11:02:07.562Z,66.2
2018-08-10T11:02:57.905Z,66.3
2018-08-10T11:03:47.992Z,66.3
2018-08-10T11:04:38.032Z,66.4
2018-08-10T11:05:28.098Z,66.4
2018-08-10T11:06:18.327Z,66.4
2018-08-10T11:07:08.229Z,66.6
2018-08-10T11:07:58.306Z,66.6
2018-08-10T11:08:48.357Z,66.6
2018-08-10T11:09:38.421Z,66.7
2018-08-10T11:10:28.212Z,66.8
2018-08-10T11:11:18.546Z,66.8
2018-08-10T11:12:08.634Z,66.8
2018-08-10T11:12:58.699Z,66.9
2018-08-10T11:13:48.750Z,66.9
2018-08-10T11:14:38.554Z,66.9
2018-08-10T11:15:28.904Z,66.9
2018-08-10T11:16:18.946Z,67
2018-08-10T11:17:09.037Z,67.1
2018-08-10T11:17:59.336Z,67.1
2018-08-10T11:18:49.184Z,66.9
2018-08-10T11:19:38.938Z,66.8
2018-08-10T11:20:29.300Z,66.8
2018-08-10T11:21:19.344Z,66.8
2018-08-10T11:22:09.426Z,66.8
2018-08-10T11:22:59.478Z,66.9
2018-08-10T11:23:49.547Z,66.9
2018-08-10T11:24:39.623Z,66.9
2018-08-10T11:25:30.259Z,67
2018-08-10T11:26:19.781Z,66.9
2018-08-10T11:27:09.822Z,66.9
2018-08-10T11:27:59.869Z,67
2018-08-10T11:28:49.934Z,67
2018-08-10T11:29:39.717Z,67.1
2018-08-10T11:30:30.098Z,67.2
2018-08-10T11:31:20.139Z,67.3
2018-08-10T11:32:10.252Z,67.3
2018-08-10T11:33:00.287Z,67.3
2018-08-10T11:33:50.328Z,67.4
2018-08-10T11:34:40.390Z,67.4
2018-08-10T11:35:30.476Z,67.5
2018-08-10T11:36:20.256Z,67.6
2018-08-10T11:37:10.600Z,67.4
2018-08-10T11:38:00.670Z,67.1
2018-08-10T11:38:50.723Z,67.1
2018-08-10T11:39:40.821Z,67.2
2018-08-10T11:40:30.872Z,67.3
2018-08-10T11:41:20.645Z,67.3
2018-08-10T11:42:10.744Z,67.3
2018-08-10T11:43:01.050Z,67.3
2018-08-10T11:43:51.105Z,67.3
2018-08-10T11:44:41.193Z,67.4
2018-08-10T11:45:31.242Z,67.4
2018-08-10T11:46:21.301Z,67.6
2018-08-10T11:47:11.370Z,67.6
2018-08-10T11:48:01.442Z,67.6
2018-08-10T11:48:51.241Z,67.7
2018-08-10T11:49:41.568Z,67.8
2018-08-10T11:50:31.651Z,67.8
2018-08-10T11:51:21.436Z,67.8
2018-08-10T11:52:11.763Z,67.9
2018-08-10T11:53:01.545Z,67.9
2018-08-10T11:53:51.912Z,68
2018-08-10T11:54:41.978Z,68
2018-08-10T11:55:31.470Z,68.1
2018-08-10T11:56:22.199Z,68.1
2018-08-10T11:57:11.891Z,68.1
2018-08-10T11:58:02.261Z,68.1
2018-08-10T11:58:52.295Z,68.2
2018-08-10T11:59:42.093Z,68.3
2018-08-10T12:00:32.425Z,68.3
2018-08-10T12:01:22.222Z,68.3
2018-08-10T12:02:12.279Z,68.3
2018-08-10T12:03:02.649Z,68.4
2018-08-10T12:03:52.123Z,68.4
2018-08-10T12:04:42.747Z,68.4
2018-08-10T12:05:32.841Z,68.4
2018-08-10T12:06:22.615Z,68.5
2018-08-10T12:07:12.990Z,68.6
2018-08-10T12:08:03.033Z,68.6
2018-08-10T12:08:53.097Z,68.6
2018-08-10T12:09:43.144Z,68.6
2018-08-10T12:10:33.217Z,68.6
2018-08-10T12:11:22.999Z,68.6
2018-08-10T12:12:13.334Z,68.6
2018-08-10T12:13:03.424Z,68.7
2018-08-10T12:13:53.461Z,68.7
2018-08-10T12:14:43.545Z,68.8
2018-08-10T12:15:33.592Z,68.8
2018-08-10T12:16:23.658Z,68.8
2018-08-10T12:17:13.446Z,68.8
2018-08-10T12:18:03.547Z,68.8
2018-08-10T12:18:53.889Z,68.9
2018-08-10T12:19:43.656Z,68.9
2018-08-10T12:20:33.983Z,68.9
2018-08-10T12:21:23.787Z,68.9
2018-08-10T12:22:14.120Z,68.9
2018-08-10T12:23:04.200Z,68.9
2018-08-10T12:23:54.240Z,69
2018-08-10T12:24:44.589Z,69
2018-08-10T12:25:34.423Z,69.1
2018-08-10T12:26:24.171Z,69.1
2018-08-10T12:27:14.510Z,69.1
2018-08-10T12:28:04.570Z,69.1
2018-08-10T12:28:54.379Z,69.1
2018-08-10T12:29:44.710Z,69.1